Miller, Nebraska
Current Conditions -  °F | °C
As of 1:35 PM on Tuesday 21 Oct 2014 (Local Time) from KLXN Reporting Station
Clear Clear  
Wind Chill: 24°   Ceiling: Unl
Heat Index: 24°   Visibility: 10mi
Dew Point:   Wind: 18mph
Humidity: 39%   Direction: 160°SSE
Pressure: 30.02"   Gusts: 25mph
Location:  40.93°N, 99.39°W
Report Text: KLXN 211835Z AUTO 16016G22KT 10SM CLR 24/09 A3002 RMK AO2 T02370091
Loading
Personal Weather Stations






























Interactive Weather Map
Tropical Storm Tracking
New forecast layout! Learn more

10-Day Weather Forecast

Advertisements
Track Severe Weather on mobile